Time;durP1;ratioP1;P1;durP2;ratioP2;P2;SDS_P1;SDS_P2;PMS_P1;PMS_P2;Temp;Humidity;BMP_temperature;BMP_pressure;BME280_temperature;BME280_humidity;BME280_pressure;Samples;Min_cycle;Max_cycle;Signal;HPM_P1;HPM_P2
2021/11/13 00:00:29;;;;;;;51.03;20.70;;;6.60;72.60;;;;;;5012382;28;20528;-49
2021/11/13 00:02:55;;;;;;;38.43;19.60;;;6.70;72.70;;;;;;5012368;28;20433;-47
2021/11/13 00:05:22;;;;;;;30.67;17.60;;;6.80;73.00;;;;;;5011715;28;20446;-48
2021/11/13 00:07:47;;;;;;;22.93;19.07;;;6.90;72.60;;;;;;5011877;28;20553;-48
2021/11/13 00:10:16;;;;;;;22.33;18.70;;;7.00;72.10;;;;;;5012010;28;20428;-45
2021/11/13 00:12:42;;;;;;;31.70;19.83;;;7.10;71.80;;;;;;5012153;28;20456;-49
2021/11/13 00:15:09;;;;;;;26.90;18.53;;;7.10;71.20;;;;;;4994055;28;20445;-49
2021/11/13 00:17:35;;;;;;;21.50;18.57;;;7.00;71.80;;;;;;5010032;28;20495;-45
2021/11/13 00:20:01;;;;;;;24.63;17.77;;;7.20;71.80;;;;;;5012248;28;20583;-49
2021/11/13 00:22:28;;;;;;;27.83;19.10;;;7.50;70.50;;;;;;5011498;28;20492;-48
2021/11/13 00:24:54;;;;;;;28.23;19.10;;;7.50;69.70;;;;;;5011969;28;20254;-45
2021/11/13 00:27:20;;;;;;;30.00;18.67;;;7.60;70.20;;;;;;5011461;28;20433;-48
2021/11/13 00:29:45;;;;;;;27.63;18.73;;;7.70;69.30;;;;;;5012109;28;20345;-45
2021/11/13 00:32:11;;;;;;;37.27;19.03;;;7.80;68.50;;;;;;5011323;28;20436;-45
2021/11/13 00:34:36;;;;;;;29.53;19.77;;;7.90;68.20;;;;;;5012041;28;20558;-46
2021/11/13 00:37:02;;;;;;;23.23;18.50;;;8.00;67.90;;;;;;5010915;28;20240;-45
2021/11/13 00:39:28;;;;;;;30.67;19.50;;;8.10;67.70;;;;;;5011823;28;20272;-45
2021/11/13 00:41:54;;;;;;;24.60;16.93;;;8.30;67.30;;;;;;5011008;28;20452;-46
2021/11/13 00:44:20;;;;;;;46.30;20.37;;;8.30;66.70;;;;;;5010130;28;20201;-45
2021/11/13 00:46:45;;;;;;;39.13;19.73;;;8.50;66.20;;;;;;5011431;28;20252;-45
2021/11/13 00:49:12;;;;;;;22.50;18.00;;;8.40;66.20;;;;;;5010732;28;20194;-45
2021/11/13 00:51:38;;;;;;;48.33;17.67;;;8.20;66.00;;;;;;5011310;28;20639;-45
2021/11/13 00:54:04;;;;;;;40.40;19.67;;;8.10;66.60;;;;;;5011654;28;20430;-45
2021/11/13 00:56:31;;;;;;;66.37;20.30;;;8.20;66.70;;;;;;5010838;28;20281;-46
2021/11/13 00:58:56;;;;;;;53.67;19.40;;;8.20;66.50;;;;;;5011239;28;20498;-45
2021/11/13 01:01:22;;;;;;;32.80;19.17;;;8.20;66.60;;;;;;5010865;28;20480;-46
2021/11/13 01:03:48;;;;;;;29.07;18.87;;;8.10;66.80;;;;;;5011427;28;20264;-47
2021/11/13 01:06:14;;;;;;;47.93;18.73;;;8.30;66.80;;;;;;5010832;28;20190;-45
2021/11/13 01:08:40;;;;;;;25.77;18.80;;;8.30;66.40;;;;;;5011052;28;20499;-45
2021/11/13 01:11:07;;;;;;;47.20;19.47;;;8.10;66.60;;;;;;5009147;28;20246;-45
2021/11/13 01:13:34;;;;;;;34.50;18.63;;;8.10;67.10;;;;;;5011589;28;20558;-45
2021/11/13 01:16:00;;;;;;;32.83;20.07;;;8.10;67.40;;;;;;5010685;28;20528;-45
2021/11/13 01:18:26;;;;;;;23.17;18.77;;;8.20;67.20;;;;;;4993521;28;20788;-45
2021/11/13 01:20:52;;;;;;;35.50;19.30;;;8.20;67.20;;;;;;5010475;28;20476;-46
2021/11/13 01:23:18;;;;;;;34.30;19.77;;;8.40;66.70;;;;;;5011444;28;20421;-45
2021/11/13 01:25:45;;;;;;;40.80;19.20;;;8.50;66.20;;;;;;5010493;28;20436;-45
2021/11/13 01:28:11;;;;;;;42.33;19.10;;;8.50;65.80;;;;;;5010821;28;20943;-45
2021/11/13 01:30:36;;;;;;;23.00;18.10;;;8.60;65.50;;;;;;5010522;28;20449;-46
2021/11/13 01:33:02;;;;;;;22.50;17.83;;;8.60;65.30;;;;;;5011120;28;20424;-46
2021/11/13 01:35:28;;;;;;;27.20;19.33;;;8.70;65.40;;;;;;5010413;28;20190;-46
2021/11/13 01:37:54;;;;;;;24.67;17.47;;;8.70;65.20;;;;;;5009306;28;20495;-45
2021/11/13 01:40:22;;;;;;;32.93;19.40;;;8.70;65.10;;;;;;5010479;28;20225;-45
2021/11/13 01:42:49;;;;;;;24.40;17.27;;;8.70;65.00;;;;;;5010952;28;20193;-46
2021/11/13 01:45:16;;;;;;;34.90;19.17;;;8.70;65.20;;;;;;5010640;28;20883;-45
2021/11/13 01:47:43;;;;;;;26.37;17.73;;;8.80;65.40;;;;;;5010653;28;20441;-45
2021/11/13 01:50:16;;;;;;;34.10;18.90;;;8.80;65.00;;;;;;5010592;28;20437;-45
2021/11/13 01:52:41;;;;;;;39.63;18.07;;;8.80;64.80;;;;;;5010916;28;20503;-45
2021/11/13 01:55:08;;;;;;;30.43;17.67;;;8.70;64.70;;;;;;5010542;28;20905;-46
2021/11/13 01:57:44;;;;;;;34.77;18.40;;;8.70;64.70;;;;;;5010662;28;20583;-46
2021/11/13 02:00:20;;;;;;;28.40;19.73;;;8.70;64.80;;;;;;5010157;28;20594;-45
2021/11/13 02:02:46;;;;;;;23.20;18.03;;;8.70;64.80;;;;;;5013714;28;20424;-46
2021/11/13 02:05:11;;;;;;;33.33;17.50;;;8.80;64.70;;;;;;5012498;28;20433;-45
2021/11/13 02:07:37;;;;;;;32.10;19.70;;;8.90;64.60;;;;;;5014156;28;20729;-46
2021/11/13 02:10:06;;;;;;;35.67;19.20;;;8.90;64.50;;;;;;5014523;28;20202;-46
2021/11/13 02:12:31;;;;;;;25.43;17.20;;;8.90;64.30;;;;;;5014387;28;20292;-46
2021/11/13 02:14:57;;;;;;;24.83;18.37;;;8.90;64.10;;;;;;5014595;28;20984;-45
2021/11/13 02:17:23;;;;;;;23.57;18.00;;;9.00;64.00;;;;;;5013621;28;20573;-45
2021/11/13 02:19:50;;;;;;;25.77;18.10;;;9.00;63.90;;;;;;5014477;28;20229;-45
2021/11/13 02:22:16;;;;;;;22.83;18.13;;;8.90;63.50;;;;;;5013705;28;20245;-46
2021/11/13 02:24:46;;;;;;;21.60;17.37;;;8.70;63.60;;;;;;5014103;28;20520;-45
2021/11/13 02:27:11;;;;;;;24.40;17.43;;;8.70;63.90;;;;;;5013496;28;20432;-45
2021/11/13 02:29:37;;;;;;;20.53;17.33;;;8.80;64.00;;;;;;5014196;28;20428;-45
2021/11/13 02:32:04;;;;;;;38.33;17.03;;;8.80;63.70;;;;;;5012319;28;20433;-47
2021/11/13 02:34:29;;;;;;;30.47;17.60;;;8.80;63.50;;;;;;5014334;28;20574;-45
2021/11/13 02:36:55;;;;;;;26.53;17.17;;;8.80;63.30;;;;;;5012770;28;20421;-46
2021/11/13 02:39:22;;;;;;;20.40;16.70;;;8.70;63.70;;;;;;5013972;28;20305;-45
2021/11/13 02:41:48;;;;;;;36.47;17.10;;;8.70;63.90;;;;;;5013430;28;20654;-45
2021/11/13 02:44:16;;;;;;;41.70;17.83;;;8.80;64.00;;;;;;5014209;28;20432;-48
2021/11/13 02:46:41;;;;;;;21.80;16.70;;;8.90;63.90;;;;;;5013569;28;20436;-46
2021/11/13 02:49:08;;;;;;;33.97;18.10;;;8.90;63.60;;;;;;5013634;28;20436;-45
2021/11/13 02:51:33;;;;;;;23.23;17.23;;;8.90;63.60;;;;;;5013324;28;20666;-47
2021/11/13 02:53:59;;;;;;;21.87;16.60;;;8.90;63.40;;;;;;5013664;28;20440;-48
2021/11/13 02:56:25;;;;;;;28.03;15.70;;;9.00;63.50;;;;;;5013188;28;20252;-45
2021/11/13 02:58:51;;;;;;;32.63;16.53;;;9.00;63.50;;;;;;5011858;28;20194;-45
2021/11/13 03:01:23;;;;;;;23.10;17.40;;;9.10;63.40;;;;;;5013014;28;20221;-47
2021/11/13 03:03:50;;;;;;;32.23;15.63;;;9.10;63.00;;;;;;5013407;28;20194;-46
2021/11/13 03:06:17;;;;;;;19.37;14.70;;;9.00;63.00;;;;;;5012881;28;20425;-45
2021/11/13 03:08:45;;;;;;;44.37;17.43;;;8.90;63.40;;;;;;5012952;28;20469;-45
2021/11/13 03:11:13;;;;;;;36.93;15.50;;;8.60;63.20;;;;;;5012544;28;20936;-45
2021/11/13 03:13:42;;;;;;;17.00;13.93;;;8.40;64.00;;;;;;5012706;28;20425;-48
2021/11/13 03:16:09;;;;;;;36.83;18.20;;;8.40;64.70;;;;;;5012888;28;20421;-48
2021/11/13 03:18:36;;;;;;;41.70;16.53;;;8.50;64.60;;;;;;4995307;28;20859;-49
2021/11/13 03:21:05;;;;;;;95.07;19.37;;;8.30;65.20;;;;;;5012755;28;20538;-50
2021/11/13 03:23:32;;;;;;;23.30;16.27;;;7.80;66.00;;;;;;5013516;28;20774;-48
2021/11/13 03:26:02;;;;;;;29.60;16.50;;;7.40;67.90;;;;;;5011396;28;20441;-50
2021/11/13 03:28:29;;;;;;;26.87;16.53;;;7.10;69.60;;;;;;5012707;28;20784;-45
2021/11/13 03:30:55;;;;;;;45.63;18.10;;;7.40;69.40;;;;;;5012782;28;20455;-49
2021/11/13 03:33:21;;;;;;;53.87;18.50;;;7.30;69.00;;;;;;5013134;28;20847;-50
2021/11/13 03:35:47;;;;;;;41.53;18.07;;;7.00;70.30;;;;;;5012461;28;20584;-45
2021/11/13 03:38:16;;;;;;;39.90;17.23;;;6.90;71.30;;;;;;5012706;28;20432;-46
2021/11/13 03:40:44;;;;;;;33.57;15.87;;;7.00;71.20;;;;;;5012360;28;20226;-46
2021/11/13 03:43:11;;;;;;;31.50;17.67;;;7.10;70.90;;;;;;5012753;28;20424;-48
2021/11/13 03:45:38;;;;;;;54.87;18.53;;;7.00;70.80;;;;;;5012085;28;20472;-46
2021/11/13 03:48:05;;;;;;;30.43;17.40;;;7.00;70.70;;;;;;5012281;28;20429;-45
2021/11/13 03:50:31;;;;;;;56.87;18.67;;;7.10;71.10;;;;;;5010740;28;20421;-46
2021/11/13 03:52:57;;;;;;;23.33;17.30;;;6.90;70.40;;;;;;5012667;28;20862;-47
2021/11/13 03:55:24;;;;;;;32.60;17.40;;;6.80;71.30;;;;;;5012266;28;20197;-45
2021/11/13 03:57:50;;;;;;;31.90;16.73;;;6.80;70.60;;;;;;5012177;28;20530;-47
2021/11/13 04:00:17;;;;;;;53.47;16.90;;;7.00;70.60;;;;;;4994419;28;20523;-45
2021/11/13 04:02:46;;;;;;;18.70;15.30;;;7.10;69.80;;;;;;5012413;28;20862;-46
2021/11/13 04:05:12;;;;;;;30.87;17.47;;;7.00;70.00;;;;;;5011522;28;20425;-45
2021/11/13 04:07:38;;;;;;;32.13;16.50;;;6.70;70.20;;;;;;5011822;28;20592;-48
2021/11/13 04:10:06;;;;;;;19.70;15.40;;;6.60;70.20;;;;;;5012034;28;20955;-45
2021/11/13 04:12:33;;;;;;;19.50;15.53;;;6.50;70.70;;;;;;5012334;28;20951;-45
2021/11/13 04:14:59;;;;;;;19.40;14.17;;;6.30;71.60;;;;;;5012595;28;20437;-46
2021/11/13 04:17:25;;;;;;;16.83;14.00;;;6.20;71.00;;;;;;5009550;28;20991;-45
2021/11/13 04:19:50;;;;;;;22.60;14.77;;;5.80;71.80;;;;;;5012374;28;20484;-45
2021/11/13 04:22:16;;;;;;;16.07;13.67;;;5.70;73.30;;;;;;5011671;28;20194;-45
2021/11/13 04:24:41;;;;;;;16.60;14.83;;;5.80;73.70;;;;;;5010969;28;20194;-46
2021/11/13 04:27:07;;;;;;;17.83;14.27;;;6.10;72.30;;;;;;5011375;28;20277;-46
2021/11/13 04:29:33;;;;;;;14.70;13.07;;;6.10;71.40;;;;;;5012393;28;20194;-45
2021/11/13 04:31:58;;;;;;;16.43;13.50;;;6.20;71.00;;;;;;5011471;28;20197;-45
2021/11/13 04:34:25;;;;;;;17.80;14.43;;;6.30;71.40;;;;;;5011893;28;20190;-45
2021/11/13 04:36:53;;;;;;;26.17;14.90;;;6.10;71.50;;;;;;5010783;28;20666;-45
2021/11/13 04:39:22;;;;;;;20.93;15.83;;;6.00;72.80;;;;;;5011728;28;20460;-46
2021/11/13 04:41:48;;;;;;;22.20;16.40;;;6.00;73.50;;;;;;5011280;28;20492;-45
2021/11/13 04:44:15;;;;;;;20.30;15.27;;;6.20;73.00;;;;;;5010171;28;20465;-45
2021/11/13 04:46:40;;;;;;;26.10;15.30;;;6.20;72.70;;;;;;5010670;28;20445;-45
2021/11/13 04:49:06;;;;;;;26.80;15.80;;;6.30;72.40;;;;;;5011719;28;20486;-46
2021/11/13 04:51:32;;;;;;;21.80;16.10;;;6.20;73.00;;;;;;5011216;28;20535;-44
2021/11/13 04:53:57;;;;;;;17.43;14.90;;;6.30;73.40;;;;;;5011525;28;20429;-45
2021/11/13 04:56:23;;;;;;;19.00;14.63;;;6.50;72.60;;;;;;5010894;28;20254;-47
2021/11/13 04:58:48;;;;;;;26.73;16.20;;;6.60;71.70;;;;;;5011202;28;20226;-46
2021/11/13 05:01:14;;;;;;;20.40;14.20;;;6.20;71.80;;;;;;5011049;28;20585;-46
2021/11/13 05:03:40;;;;;;;22.50;15.57;;;6.30;73.20;;;;;;5011232;28;20206;-45
2021/11/13 05:06:05;;;;;;;21.37;17.20;;;6.30;72.50;;;;;;5010921;28;20182;-45
2021/11/13 05:08:31;;;;;;;20.30;14.27;;;6.50;72.60;;;;;;5011159;28;20323;-47
2021/11/13 05:10:56;;;;;;;19.87;15.30;;;6.70;71.20;;;;;;5009177;28;20272;-45
2021/11/13 05:13:22;;;;;;;22.17;14.40;;;6.80;71.10;;;;;;5011437;28;20548;-45
2021/11/13 05:15:49;;;;;;;19.47;15.03;;;6.70;70.80;;;;;;5010638;28;20250;-46
2021/11/13 05:18:14;;;;;;;17.20;14.40;;;6.80;70.40;;;;;;5011041;28;20200;-45
2021/11/13 05:20:40;;;;;;;22.63;15.33;;;6.80;71.00;;;;;;5010640;28;20579;-46
2021/11/13 05:23:06;;;;;;;19.27;14.80;;;6.60;71.00;;;;;;5011382;28;20193;-46
2021/11/13 05:25:32;;;;;;;18.70;14.93;;;6.70;71.70;;;;;;5010923;28;20277;-46
2021/11/13 05:27:58;;;;;;;19.57;16.20;;;6.80;71.10;;;;;;5010948;28;20451;-46
2021/11/13 05:30:26;;;;;;;15.80;13.53;;;7.00;70.60;;;;;;5010644;28;20429;-45
2021/11/13 05:32:52;;;;;;;16.40;13.33;;;7.00;70.10;;;;;;5011128;28;20433;-45
2021/11/13 05:35:19;;;;;;;15.53;13.33;;;6.80;70.60;;;;;;5010463;28;20422;-45
2021/11/13 05:37:46;;;;;;;19.60;16.97;;;7.00;71.20;;;;;;5013185;28;20420;-47
2021/11/13 05:40:12;;;;;;;15.53;13.83;;;7.20;69.90;;;;;;5014383;28;20498;-45
2021/11/13 05:42:39;;;;;;;17.77;13.43;;;7.00;70.10;;;;;;5015262;28;20516;-46
2021/11/13 05:45:06;;;;;;;18.87;13.07;;;7.00;70.10;;;;;;5014795;28;20433;-47
2021/11/13 05:47:32;;;;;;;16.87;13.30;;;7.20;69.80;;;;;;5014639;28;20457;-45
2021/11/13 05:49:58;;;;;;;17.07;13.70;;;7.20;69.40;;;;;;5015099;28;20460;-45
2021/11/13 05:52:24;;;;;;;17.30;14.87;;;7.10;69.10;;;;;;5014364;28;20221;-45
2021/11/13 05:54:49;;;;;;;15.60;13.30;;;7.10;69.00;;;;;;5014995;28;20193;-46
2021/11/13 05:57:15;;;;;;;15.30;12.90;;;6.70;70.00;;;;;;5012944;28;20186;-45
2021/11/13 05:59:41;;;;;;;18.73;14.07;;;6.60;70.90;;;;;;5014658;28;20194;-45
2021/11/13 06:02:06;;;;;;;17.57;14.00;;;6.50;71.50;;;;;;5014260;28;20638;-46
2021/11/13 06:04:32;;;;;;;16.00;14.23;;;6.40;71.80;;;;;;5013325;28;20197;-45
2021/11/13 06:06:59;;;;;;;16.57;14.23;;;6.40;71.90;;;;;;5013797;28;20197;-45
2021/11/13 06:09:26;;;;;;;19.37;15.23;;;6.30;72.80;;;;;;5014256;28;20242;-47
2021/11/13 06:11:52;;;;;;;18.73;12.40;;;6.30;73.00;;;;;;5014241;28;20436;-46
2021/11/13 06:14:17;;;;;;;16.70;13.60;;;6.30;72.90;;;;;;5014559;28;20425;-46
2021/11/13 06:16:43;;;;;;;18.30;13.53;;;6.40;73.00;;;;;;5013704;28;20459;-48
2021/11/13 06:19:09;;;;;;;16.10;13.90;;;6.60;72.60;;;;;;5014342;28;20914;-48
2021/11/13 06:21:35;;;;;;;16.93;13.30;;;6.40;72.00;;;;;;5013894;28;20495;-46
2021/11/13 06:24:01;;;;;;;16.70;12.60;;;6.40;72.70;;;;;;5014582;28;20190;-47
2021/11/13 06:26:26;;;;;;;15.00;13.20;;;6.50;72.60;;;;;;5013421;28;20277;-46
2021/11/13 06:28:52;;;;;;;15.97;13.37;;;6.20;73.10;;;;;;5012893;28;20194;-48
2021/11/13 06:31:17;;;;;;;14.90;12.83;;;6.40;73.80;;;;;;5012152;28;20206;-49
2021/11/13 06:33:43;;;;;;;15.47;13.23;;;6.60;72.90;;;;;;5014210;28;20272;-50
2021/11/13 06:36:09;;;;;;;15.03;12.30;;;6.40;72.00;;;;;;5013403;28;20225;-49
2021/11/13 06:38:35;;;;;;;15.07;13.47;;;6.30;73.30;;;;;;5013657;28;20256;-47
2021/11/13 06:41:01;;;;;;;13.23;11.83;;;6.20;73.50;;;;;;5013609;28;20484;-46
2021/11/13 06:43:26;;;;;;;14.03;12.53;;;6.20;73.70;;;;;;5014017;28;20193;-49
2021/11/13 06:45:52;;;;;;;15.83;14.23;;;6.20;73.90;;;;;;5013626;28;20531;-49
2021/11/13 06:48:17;;;;;;;12.97;11.43;;;6.10;73.90;;;;;;5012649;28;20221;-49
2021/11/13 06:50:46;;;;;;;13.97;12.57;;;6.30;73.90;;;;;;5013665;28;20558;-46
2021/11/13 06:53:12;;;;;;;15.57;13.90;;;6.30;74.00;;;;;;5013660;28;20241;-46
2021/11/13 06:55:38;;;;;;;14.07;12.57;;;6.40;74.20;;;;;;5013258;28;20441;-48
2021/11/13 06:58:04;;;;;;;14.20;12.10;;;6.40;74.10;;;;;;5011796;28;20427;-49
2021/11/13 07:00:30;;;;;;;16.67;13.50;;;6.40;73.40;;;;;;5013427;28;20645;-49
2021/11/13 07:02:59;;;;;;;15.90;12.47;;;6.40;73.70;;;;;;5013917;28;20190;-48
2021/11/13 07:05:27;;;;;;;18.43;13.07;;;6.50;73.60;;;;;;5001451;28;21297;-46
2021/11/13 07:07:53;;;;;;;16.07;12.97;;;6.40;73.60;;;;;;5012917;28;20503;-47
2021/11/13 07:10:19;;;;;;;15.13;12.70;;;6.60;74.00;;;;;;5012884;28;20433;-46
2021/11/13 07:12:45;;;;;;;14.50;12.67;;;6.90;72.80;;;;;;5013106;28;21952;-46
2021/11/13 07:15:11;;;;;;;15.10;13.50;;;7.10;72.00;;;;;;5012917;28;20440;-46
2021/11/13 07:17:37;;;;;;;13.60;12.20;;;7.20;71.20;;;;;;4995302;28;20436;-47
2021/11/13 07:20:04;;;;;;;12.63;10.93;;;7.20;70.50;;;;;;5013307;28;20837;-45
2021/11/13 07:22:29;;;;;;;14.60;13.10;;;7.00;71.40;;;;;;5011840;28;20209;-45
2021/11/13 07:24:55;;;;;;;13.30;11.90;;;7.20;71.20;;;;;;5011525;28;20479;-46
2021/11/13 07:27:21;;;;;;;14.00;12.50;;;7.20;71.20;;;;;;5012320;28;20194;-45
2021/11/13 07:29:57;;;;;;;13.00;11.70;;;7.20;70.60;;;;;;4995537;28;20650;-45
2021/11/13 07:32:22;;;;;;;15.97;11.87;;;7.20;71.10;;;;;;5012511;28;20198;-45
2021/11/13 07:34:48;;;;;;;14.73;12.87;;;7.20;70.50;;;;;;5012859;28;20483;-45
2021/11/13 07:37:13;;;;;;;13.23;11.83;;;7.20;71.10;;;;;;5012152;28;20186;-44
2021/11/13 07:39:39;;;;;;;14.37;12.17;;;7.30;70.70;;;;;;5013018;28;20202;-47
2021/11/13 07:42:05;;;;;;;16.13;12.40;;;7.50;69.80;;;;;;5012689;28;20190;-46
2021/11/13 07:44:31;;;;;;;14.93;11.10;;;7.60;69.40;;;;;;5012940;28;20536;-48
2021/11/13 07:46:57;;;;;;;13.13;11.90;;;7.70;69.00;;;;;;5010678;28;20198;-46
2021/11/13 07:49:23;;;;;;;14.70;13.00;;;7.60;68.90;;;;;;5012613;28;20436;-45
2021/11/13 07:51:49;;;;;;;13.60;11.97;;;7.50;69.30;;;;;;5010792;28;20763;-50
2021/11/13 07:54:15;;;;;;;14.70;12.00;;;7.30;69.90;;;;;;5012796;28;20198;-47
2021/11/13 07:56:42;;;;;;;12.80;11.47;;;7.00;70.90;;;;;;5011452;28;20418;-49
2021/11/13 07:59:08;;;;;;;12.43;11.00;;;7.10;71.10;;;;;;5012356;28;20443;-47
2021/11/13 08:01:34;;;;;;;12.23;10.50;;;7.50;70.40;;;;;;5012315;28;20488;-49
2021/11/13 08:04:00;;;;;;;12.20;10.90;;;7.40;69.50;;;;;;5012600;28;20197;-49
2021/11/13 08:06:26;;;;;;;12.97;11.67;;;7.50;69.60;;;;;;5011462;28;20285;-45
2021/11/13 08:08:51;;;;;;;11.80;10.60;;;7.70;69.20;;;;;;5012217;28;20968;-46
2021/11/13 08:11:17;;;;;;;13.00;11.40;;;7.80;68.60;;;;;;5011990;28;20524;-49
2021/11/13 08:13:43;;;;;;;11.37;10.27;;;8.10;68.00;;;;;;5012399;28;20209;-48
2021/11/13 08:16:09;;;;;;;12.20;10.67;;;8.10;67.40;;;;;;5011480;28;20437;-48
2021/11/13 08:18:35;;;;;;;12.07;10.73;;;8.30;67.20;;;;;;5010337;28;20265;-49
2021/11/13 08:21:02;;;;;;;11.13;10.07;;;8.60;66.40;;;;;;5012104;28;20488;-49
2021/11/13 08:23:28;;;;;;;13.73;11.10;;;8.70;65.90;;;;;;5012109;28;20425;-49
2021/11/13 08:25:54;;;;;;;13.60;12.00;;;8.70;65.80;;;;;;5011338;28;20759;-45
2021/11/13 08:28:20;;;;;;;14.47;11.60;;;8.80;65.50;;;;;;4994059;28;20448;-47
2021/11/13 08:30:47;;;;;;;13.37;11.10;;;8.60;65.90;;;;;;5011417;28;20220;-46
2021/11/13 08:33:13;;;;;;;10.83;9.83;;;8.40;66.10;;;;;;5012004;28;20476;-49
2021/11/13 08:35:42;;;;;;;10.73;9.63;;;8.40;67.20;;;;;;5011011;28;20413;-50
2021/11/13 08:38:11;;;;;;;13.07;10.70;;;8.50;65.90;;;;;;5011583;28;20436;-47
2021/11/13 08:40:37;;;;;;;10.20;9.17;;;8.80;66.00;;;;;;5011344;28;20489;-46
2021/11/13 08:43:03;;;;;;;11.17;9.87;;;9.30;65.60;;;;;;5010715;28;21003;-45
2021/11/13 08:45:28;;;;;;;11.90;10.70;;;9.60;65.00;;;;;;5009171;28;20202;-46
2021/11/13 08:47:54;;;;;;;16.87;10.50;;;9.90;64.50;;;;;;5011569;28;20240;-47
2021/11/13 08:50:23;;;;;;;10.53;9.43;;;10.20;62.60;;;;;;5011272;28;20201;-48
2021/11/13 08:52:51;;;;;;;11.40;8.97;;;10.40;61.40;;;;;;5011912;28;20186;-45
2021/11/13 08:55:19;;;;;;;11.87;10.63;;;10.60;60.50;;;;;;5010869;28;20492;-45
2021/11/13 08:57:46;;;;;;;11.27;10.13;;;10.60;60.40;;;;;;5011371;28;20432;-46
2021/11/13 09:00:15;;;;;;;11.37;9.50;;;10.50;60.20;;;;;;5010988;28;20488;-45
2021/11/13 09:02:41;;;;;;;17.20;11.37;;;10.70;59.80;;;;;;5011701;28;20421;-45
2021/11/13 09:05:08;;;;;;;13.10;11.80;;;10.70;59.90;;;;;;5011496;28;20440;-45
2021/11/13 09:07:35;;;;;;;13.27;9.90;;;10.90;60.40;;;;;;5010851;28;20421;-48
2021/11/13 09:10:02;;;;;;;12.33;10.67;;;10.90;61.00;;;;;;5011186;28;20436;-51
2021/11/13 09:12:28;;;;;;;12.87;11.57;;;11.10;61.00;;;;;;5009171;28;21142;-46
2021/11/13 09:15:02;;;;;;;10.67;9.73;;;11.20;61.70;;;;;;5011039;28;20567;-49
2021/11/13 09:17:29;;;;;;;12.20;10.90;;;11.30;60.20;;;;;;5010528;28;20963;-46
2021/11/13 09:19:55;;;;;;;11.77;10.53;;;11.40;59.80;;;;;;5010926;28;20490;-48
2021/11/13 09:22:20;;;;;;;18.37;16.10;;;11.40;59.90;;;;;;5010700;28;20520;-46
2021/11/13 09:24:46;;;;;;;16.13;14.43;;;11.30;60.30;;;;;;5011215;28;20194;-49
2021/11/13 09:27:12;;;;;;;13.60;12.20;;;11.20;61.40;;;;;;5009980;28;20202;-47
2021/11/13 09:29:38;;;;;;;13.50;11.50;;;11.20;61.50;;;;;;5011261;28;20425;-47
2021/11/13 09:32:04;;;;;;;12.70;10.90;;;11.20;60.80;;;;;;5010797;28;20204;-48
2021/11/13 09:34:30;;;;;;;14.33;12.77;;;10.90;60.70;;;;;;5011051;28;20186;-48
2021/11/13 09:36:55;;;;;;;13.83;12.43;;;10.80;62.10;;;;;;5010132;28;21753;-49
2021/11/13 09:39:21;;;;;;;14.23;12.63;;;10.80;61.90;;;;;;5009414;28;20661;-48
2021/11/13 09:41:48;;;;;;;14.50;12.10;;;11.00;61.40;;;;;;5010336;28;20225;-47
2021/11/13 09:44:18;;;;;;;15.03;12.43;;;10.70;61.50;;;;;;5011070;28;20571;-49
2021/11/13 09:46:45;;;;;;;15.97;14.47;;;10.70;62.40;;;;;;5010095;28;20516;-49
2021/11/13 09:49:11;;;;;;;27.13;24.53;;;10.70;63.20;;;;;;5011003;28;20431;-50
2021/11/13 09:51:36;;;;;;;20.17;18.23;;;10.80;62.80;;;;;;5010352;28;20439;-48
2021/11/13 09:54:02;;;;;;;16.57;14.87;;;10.90;61.60;;;;;;5010807;28;20677;-47
2021/11/13 09:56:29;;;;;;;13.30;12.00;;;11.00;61.90;;;;;;5010060;28;20612;-49
2021/11/13 09:58:54;;;;;;;16.30;11.13;;;11.20;61.60;;;;;;5011031;28;20564;-47
2021/11/13 10:01:20;;;;;;;11.00;9.90;;;11.30;61.70;;;;;;5010299;28;20566;-50
2021/11/13 10:03:47;;;;;;;12.10;10.47;;;11.50;61.10;;;;;;5010449;28;20319;-46
2021/11/13 10:06:14;;;;;;;12.23;10.97;;;11.60;61.20;;;;;;5008248;28;20190;-48
2021/11/13 10:08:41;;;;;;;17.33;11.27;;;11.80;60.90;;;;;;5010705;28;20468;-47
2021/11/13 10:11:12;;;;;;;12.50;10.63;;;11.90;60.40;;;;;;5010147;28;20487;-47
2021/11/13 10:13:48;;;;;;;12.30;11.00;;;12.10;61.80;;;;;;5010681;28;20433;-47
2021/11/13 10:16:17;;;;;;;11.20;10.10;;;12.40;61.50;;;;;;5009758;28;20454;-49
2021/11/13 10:18:49;;;;;;;11.17;9.80;;;12.60;61.40;;;;;;5010854;28;20421;-49
2021/11/13 10:21:33;;;;;;;12.17;10.40;;;12.80;59.90;;;;;;5009922;28;20485;-48
2021/11/13 10:24:04;;;;;;;11.60;10.40;;;13.00;59.00;;;;;;5014272;28;20424;-47
2021/11/13 10:26:35;;;;;;;18.73;11.93;;;13.10;59.00;;;;;;5013606;28;20428;-48
2021/11/13 10:29:06;;;;;;;16.17;13.50;;;13.10;59.40;;;;;;5014321;28;20529;-48
2021/11/13 10:31:37;;;;;;;15.17;13.60;;;13.00;59.90;;;;;;5012110;28;20433;-46
2021/11/13 10:34:11;;;;;;;16.87;13.77;;;12.70;59.70;;;;;;5014258;28;20924;-46
2021/11/13 10:36:40;;;;;;;17.37;15.53;;;12.90;60.40;;;;;;4995169;28;20487;-47
2021/11/13 10:39:14;;;;;;;17.37;15.40;;;12.90;61.10;;;;;;5014036;28;20487;-46
2021/11/13 10:41:49;;;;;;;15.70;13.77;;;13.00;60.60;;;;;;5013351;28;20545;-46
2021/11/13 10:44:28;;;;;;;13.37;12.07;;;13.00;60.60;;;;;;5014068;28;20439;-46
2021/11/13 10:46:55;;;;;;;13.00;11.70;;;13.10;60.70;;;;;;5013034;28;20863;-45
2021/11/13 10:49:21;;;;;;;13.77;12.33;;;13.00;60.60;;;;;;5014031;28;20513;-46
2021/11/13 10:51:56;;;;;;;13.40;12.10;;;12.90;60.70;;;;;;5013254;28;20437;-46
2021/11/13 10:54:22;;;;;;;14.03;12.50;;;13.00;60.80;;;;;;5013858;28;20803;-45
2021/11/13 10:56:54;;;;;;;15.77;13.30;;;13.00;60.30;;;;;;5012463;28;20436;-47
2021/11/13 10:59:25;;;;;;;13.90;12.40;;;13.00;60.40;;;;;;5012511;28;20510;-46
2021/11/13 11:01:52;;;;;;;14.50;13.00;;;12.80;60.90;;;;;;5013068;28;20488;-46
2021/11/13 11:04:23;;;;;;;14.37;12.87;;;12.80;61.10;;;;;;5013542;28;20425;-45
2021/11/13 11:06:51;;;;;;;14.13;12.83;;;12.90;61.70;;;;;;5012604;28;20808;-46
2021/11/13 11:09:21;;;;;;;13.67;12.37;;;12.90;61.40;;;;;;5013110;28;20477;-46
2021/11/13 11:11:47;;;;;;;12.87;11.57;;;12.90;60.40;;;;;;5013168;28;20516;-45
2021/11/13 11:14:19;;;;;;;15.37;13.70;;;13.00;60.30;;;;;;5013086;28;20446;-46
2021/11/13 11:16:53;;;;;;;17.43;12.87;;;13.10;60.90;;;;;;5012558;28;20437;-47
2021/11/13 11:19:26;;;;;;;14.50;12.90;;;13.20;60.00;;;;;;5013434;28;20440;-46
2021/11/13 11:21:55;;;;;;;15.97;13.90;;;13.20;59.70;;;;;;5012577;28;20568;-45
2021/11/13 11:24:39;;;;;;;14.63;13.13;;;13.20;59.70;;;;;;5011470;28;20440;-45
2021/11/13 11:27:04;;;;;;;12.80;11.50;;;13.20;59.80;;;;;;5012416;28;20441;-50
2021/11/13 11:29:32;;;;;;;15.57;14.07;;;13.30;59.90;;;;;;5013335;28;20529;-45
2021/11/13 11:32:00;;;;;;;14.83;13.43;;;13.30;59.70;;;;;;5012522;28;20201;-46
2021/11/13 11:34:37;;;;;;;16.17;13.07;;;13.30;59.80;;;;;;5012590;28;20422;-46
2021/11/13 11:37:13;;;;;;;13.97;12.43;;;13.30;59.80;;;;;;5012150;28;20433;-46
2021/11/13 11:39:41;;;;;;;15.33;13.73;;;13.30;59.80;;;;;;5013035;28;20912;-46
2021/11/13 11:42:08;;;;;;;13.23;11.97;;;13.40;59.90;;;;;;5012183;28;20445;-48
2021/11/13 11:44:35;;;;;;;12.57;11.20;;;13.30;59.90;;;;;;5012987;28;20424;-46
2021/11/13 11:47:01;;;;;;;15.57;11.67;;;13.30;59.90;;;;;;5012128;28;20421;-45
2021/11/13 11:49:29;;;;;;;13.30;11.83;;;13.20;59.70;;;;;;5012844;28;20436;-46
2021/11/13 11:51:55;;;;;;;14.03;12.63;;;13.10;59.90;;;;;;5010703;28;20190;-46
2021/11/13 11:54:20;;;;;;;13.70;12.33;;;13.10;60.40;;;;;;5012496;28;20429;-45
2021/11/13 11:56:46;;;;;;;15.43;13.83;;;13.00;60.70;;;;;;5010428;28;20199;-45
2021/11/13 11:59:13;;;;;;;14.57;13.17;;;12.90;60.90;;;;;;5012548;28;20719;-48
2021/11/13 12:01:41;;;;;;;13.50;12.20;;;12.70;61.80;;;;;;5011943;28;20700;-46
2021/11/13 12:04:14;;;;;;;14.73;13.23;;;12.60;62.20;;;;;;5012541;28;20429;-46
2021/11/13 12:06:49;;;;;;;15.60;12.90;;;12.80;62.10;;;;;;5011505;28;20449;-47
2021/11/13 12:09:15;;;;;;;14.77;12.77;;;12.90;61.80;;;;;;5012285;28;20566;-46
2021/11/13 12:11:42;;;;;;;14.93;13.27;;;12.90;61.70;;;;;;5011601;28;20909;-45
2021/11/13 12:14:32;;;;;;;13.67;12.37;;;12.90;61.70;;;;;;5012302;28;20201;-46
2021/11/13 12:17:26;;;;;;;13.83;12.30;;;13.00;61.60;;;;;;5011335;28;20444;-45
2021/11/13 12:20:04;;;;;;;14.27;12.97;;;12.80;61.50;;;;;;5011070;28;20440;-45
2021/11/13 12:22:42;;;;;;;13.00;11.60;;;12.80;62.00;;;;;;5011922;28;20516;-45
2021/11/13 12:25:35;;;;;;;13.70;11.90;;;12.70;61.80;;;;;;5011907;28;20433;-46
2021/11/13 12:28:21;;;;;;;12.50;11.20;;;12.80;61.70;;;;;;4992325;28;20445;-48
2021/11/13 12:31:05;;;;;;;14.50;11.70;;;12.60;62.00;;;;;;5011437;28;20444;-47
2021/11/13 12:33:37;;;;;;;12.97;11.20;;;12.70;61.80;;;;;;5012075;28;20449;-45